sensor_id;sensor_type;location;lat;lon;timestamp;temperature;humidity
8539;DHT22;4307;53.868;11.680;2023-03-01T00:00:44;-0.90;98.80
8539;DHT22;4307;53.868;11.680;2023-03-01T00:03:12;-1.00;98.80
8539;DHT22;4307;53.868;11.680;2023-03-01T00:05:44;-1.00;98.90
8539;DHT22;4307;53.868;11.680;2023-03-01T00:08:10;-1.10;99.00
8539;DHT22;4307;53.868;11.680;2023-03-01T00:10:37;-1.10;99.00
8539;DHT22;4307;53.868;11.680;2023-03-01T00:13:04;-1.00;99.10
8539;DHT22;4307;53.868;11.680;2023-03-01T00:15:33;-1.10;99.10
8539;DHT22;4307;53.868;11.680;2023-03-01T00:18:00;-1.10;99.10
8539;DHT22;4307;53.868;11.680;2023-03-01T00:20:27;-1.10;99.20
8539;DHT22;4307;53.868;11.680;2023-03-01T00:22:53;-1.20;99.20
8539;DHT22;4307;53.868;11.680;2023-03-01T00:25:20;-1.20;99.20
8539;DHT22;4307;53.868;11.680;2023-03-01T00:27:47;-1.20;99.30
8539;DHT22;4307;53.868;11.680;2023-03-01T00:30:14;-1.20;99.30
8539;DHT22;4307;53.868;11.680;2023-03-01T00:32:42;-1.20;99.40
8539;DHT22;4307;53.868;11.680;2023-03-01T00:35:09;-1.20;99.50
8539;DHT22;4307;53.868;11.680;2023-03-01T00:37:36;-1.20;99.60
8539;DHT22;4307;53.868;11.680;2023-03-01T00:40:03;-1.30;99.50
8539;DHT22;4307;53.868;11.680;2023-03-01T00:42:31;-1.30;99.60
8539;DHT22;4307;53.868;11.680;2023-03-01T00:44:58;-1.30;99.60
8539;DHT22;4307;53.868;11.680;2023-03-01T00:47:24;-1.30;99.70
8539;DHT22;4307;53.868;11.680;2023-03-01T00:49:52;-1.30;99.80
8539;DHT22;4307;53.868;11.680;2023-03-01T00:52:19;-1.30;99.90
8539;DHT22;4307;53.868;11.680;2023-03-01T00:54:46;-1.30;99.90
8539;DHT22;4307;53.868;11.680;2023-03-01T00:57:12;-1.30;99.90
8539;DHT22;4307;53.868;11.680;2023-03-01T00:59:39;-1.40;99.90
8539;DHT22;4307;53.868;11.680;2023-03-01T01:02:05;-1.40;99.90
8539;DHT22;4307;53.868;11.680;2023-03-01T01:04:32;-1.40;99.90
8539;DHT22;4307;53.868;11.680;2023-03-01T01:07:00;-1.40;99.90
8539;DHT22;4307;53.868;11.680;2023-03-01T01:09:27;-1.40;99.90
8539;DHT22;4307;53.868;11.680;2023-03-01T01:11:53;-1.40;99.90
8539;DHT22;4307;53.868;11.680;2023-03-01T01:14:20;-1.40;99.90
8539;DHT22;4307;53.868;11.680;2023-03-01T01:16:47;-1.40;99.90
8539;DHT22;4307;53.868;11.680;2023-03-01T01:19:14;-1.40;99.90
8539;DHT22;4307;53.868;11.680;2023-03-01T01:21:41;-1.40;99.90
8539;DHT22;4307;53.868;11.680;2023-03-01T01:24:10;-1.40;99.90
8539;DHT22;4307;53.868;11.680;2023-03-01T01:26:37;-1.50;99.90
8539;DHT22;4307;53.868;11.680;2023-03-01T01:29:05;-1.40;99.90
8539;DHT22;4307;53.868;11.680;2023-03-01T01:31:32;-1.50;99.90
8539;DHT22;4307;53.868;11.680;2023-03-01T01:34:01;-1.50;99.90
8539;DHT22;4307;53.868;11.680;2023-03-01T01:36:28;-1.50;99.90
8539;DHT22;4307;53.868;11.680;2023-03-01T01:38:55;-1.50;99.90
8539;DHT22;4307;53.868;11.680;2023-03-01T01:41:24;-1.50;99.90
8539;DHT22;4307;53.868;11.680;2023-03-01T01:44:10;-1.60;99.90
8539;DHT22;4307;53.868;11.680;2023-03-01T01:46:39;-1.50;99.90
8539;DHT22;4307;53.868;11.680;2023-03-01T01:49:14;-1.60;99.90
8539;DHT22;4307;53.868;11.680;2023-03-01T01:51:44;-1.60;99.90
8539;DHT22;4307;53.868;11.680;2023-03-01T01:54:19;-1.60;99.90
8539;DHT22;4307;53.868;11.680;2023-03-01T01:56:51;-1.60;99.90
8539;DHT22;4307;53.868;11.680;2023-03-01T01:59:18;-1.60;99.90
8539;DHT22;4307;53.868;11.680;2023-03-01T02:01:50;-1.60;99.90
8539;DHT22;4307;53.868;11.680;2023-03-01T02:04:16;-1.60;99.90
8539;DHT22;4307;53.868;11.680;2023-03-01T02:06:48;-1.60;99.90
8539;DHT22;4307;53.868;11.680;2023-03-01T02:09:19;-1.60;99.90
8539;DHT22;4307;53.868;11.680;2023-03-01T02:11:48;-1.60;99.90
8539;DHT22;4307;53.868;11.680;2023-03-01T02:14:16;-1.50;99.90
8539;DHT22;4307;53.868;11.680;2023-03-01T02:16:43;-1.60;99.90
8539;DHT22;4307;53.868;11.680;2023-03-01T02:19:16;-1.60;99.90
8539;DHT22;4307;53.868;11.680;2023-03-01T02:21:54;-1.60;99.90
8539;DHT22;4307;53.868;11.680;2023-03-01T02:24:28;-1.60;99.90
8539;DHT22;4307;53.868;11.680;2023-03-01T02:26:59;-1.70;99.90
8539;DHT22;4307;53.868;11.680;2023-03-01T02:29:28;-1.70;99.90
8539;DHT22;4307;53.868;11.680;2023-03-01T02:31:58;-1.80;99.90
8539;DHT22;4307;53.868;11.680;2023-03-01T02:34:26;-1.80;99.90
8539;DHT22;4307;53.868;11.680;2023-03-01T02:36:56;-1.80;99.90
8539;DHT22;4307;53.868;11.680;2023-03-01T02:39:26;-1.80;99.90
8539;DHT22;4307;53.868;11.680;2023-03-01T02:41:56;-1.80;99.90
8539;DHT22;4307;53.868;11.680;2023-03-01T02:44:24;-1.90;99.90
8539;DHT22;4307;53.868;11.680;2023-03-01T02:46:53;-1.80;99.90
8539;DHT22;4307;53.868;11.680;2023-03-01T02:49:24;-1.80;99.90
8539;DHT22;4307;53.868;11.680;2023-03-01T02:52:22;-1.90;99.90
8539;DHT22;4307;53.868;11.680;2023-03-01T02:54:54;-1.90;99.90
8539;DHT22;4307;53.868;11.680;2023-03-01T02:57:25;-1.90;99.90
8539;DHT22;4307;53.868;11.680;2023-03-01T02:59:54;-1.90;99.90
8539;DHT22;4307;53.868;11.680;2023-03-01T03:02:24;-1.90;99.90
8539;DHT22;4307;53.868;11.680;2023-03-01T03:05:02;-1.90;99.90
8539;DHT22;4307;53.868;11.680;2023-03-01T03:07:31;-1.90;99.90
8539;DHT22;4307;53.868;11.680;2023-03-01T03:09:58;-1.90;99.90
8539;DHT22;4307;53.868;11.680;2023-03-01T03:12:25;-1.90;99.90
8539;DHT22;4307;53.868;11.680;2023-03-01T03:14:51;-1.90;99.90
8539;DHT22;4307;53.868;11.680;2023-03-01T03:17:18;-1.90;99.90
8539;DHT22;4307;53.868;11.680;2023-03-01T03:19:46;-1.90;99.90
8539;DHT22;4307;53.868;11.680;2023-03-01T03:22:13;-1.90;99.90
8539;DHT22;4307;53.868;11.680;2023-03-01T03:24:39;-1.90;99.90
8539;DHT22;4307;53.868;11.680;2023-03-01T03:27:07;-1.90;99.90
8539;DHT22;4307;53.868;11.680;2023-03-01T03:29:33;-1.90;99.90
8539;DHT22;4307;53.868;11.680;2023-03-01T03:32:00;-1.90;99.90
8539;DHT22;4307;53.868;11.680;2023-03-01T03:34:27;-2.00;99.90
8539;DHT22;4307;53.868;11.680;2023-03-01T03:36:55;-2.00;99.90
8539;DHT22;4307;53.868;11.680;2023-03-01T03:39:25;-2.00;99.90
8539;DHT22;4307;53.868;11.680;2023-03-01T03:41:52;-2.00;99.90
8539;DHT22;4307;53.868;11.680;2023-03-01T03:44:19;-2.00;99.90
8539;DHT22;4307;53.868;11.680;2023-03-01T03:46:46;-1.90;99.90
8539;DHT22;4307;53.868;11.680;2023-03-01T03:49:12;-2.00;99.90
8539;DHT22;4307;53.868;11.680;2023-03-01T03:51:39;-1.80;99.90
8539;DHT22;4307;53.868;11.680;2023-03-01T03:54:07;-2.00;99.90
8539;DHT22;4307;53.868;11.680;2023-03-01T03:56:34;-1.90;99.90
8539;DHT22;4307;53.868;11.680;2023-03-01T03:59:01;-2.00;99.90
8539;DHT22;4307;53.868;11.680;2023-03-01T04:01:27;-2.00;99.90
8539;DHT22;4307;53.868;11.680;2023-03-01T04:03:54;-2.00;99.90
8539;DHT22;4307;53.868;11.680;2023-03-01T04:06:21;-2.00;99.90
8539;DHT22;4307;53.868;11.680;2023-03-01T04:08:48;-2.00;99.90
8539;DHT22;4307;53.868;11.680;2023-03-01T04:11:17;-2.00;99.90
8539;DHT22;4307;53.868;11.680;2023-03-01T04:13:55;-2.00;99.90
8539;DHT22;4307;53.868;11.680;2023-03-01T04:16:22;-2.00;99.90
8539;DHT22;4307;53.868;11.680;2023-03-01T04:18:49;-2.10;99.90
8539;DHT22;4307;53.868;11.680;2023-03-01T04:21:16;-2.10;99.90
8539;DHT22;4307;53.868;11.680;2023-03-01T04:23:43;-2.10;99.90
8539;DHT22;4307;53.868;11.680;2023-03-01T04:26:09;-2.10;99.90
8539;DHT22;4307;53.868;11.680;2023-03-01T04:28:39;-2.20;99.90
8539;DHT22;4307;53.868;11.680;2023-03-01T04:31:10;-2.20;99.90
8539;DHT22;4307;53.868;11.680;2023-03-01T04:33:41;-2.20;99.90
8539;DHT22;4307;53.868;11.680;2023-03-01T04:36:09;-2.20;99.90
8539;DHT22;4307;53.868;11.680;2023-03-01T04:38:37;-2.10;99.90
8539;DHT22;4307;53.868;11.680;2023-03-01T04:41:04;-2.10;99.90
8539;DHT22;4307;53.868;11.680;2023-03-01T04:43:31;-2.10;99.90
8539;DHT22;4307;53.868;11.680;2023-03-01T04:46:01;-2.10;99.90
8539;DHT22;4307;53.868;11.680;2023-03-01T04:48:29;-2.00;99.90
8539;DHT22;4307;53.868;11.680;2023-03-01T04:50:56;-2.00;99.90
8539;DHT22;4307;53.868;11.680;2023-03-01T04:53:23;-2.00;99.90
8539;DHT22;4307;53.868;11.680;2023-03-01T04:55:50;-2.00;99.90
8539;DHT22;4307;53.868;11.680;2023-03-01T04:58:16;-2.00;99.90
8539;DHT22;4307;53.868;11.680;2023-03-01T05:00:43;-2.00;99.90
8539;DHT22;4307;53.868;11.680;2023-03-01T05:03:11;-2.00;99.90
8539;DHT22;4307;53.868;11.680;2023-03-01T05:05:39;-2.00;99.90
8539;DHT22;4307;53.868;11.680;2023-03-01T05:08:08;-2.00;99.90
8539;DHT22;4307;53.868;11.680;2023-03-01T05:10:35;-2.00;99.90
8539;DHT22;4307;53.868;11.680;2023-03-01T05:13:04;-2.10;99.90
8539;DHT22;4307;53.868;11.680;2023-03-01T05:15:32;-2.10;99.90
8539;DHT22;4307;53.868;11.680;2023-03-01T05:18:00;-2.10;99.90
8539;DHT22;4307;53.868;11.680;2023-03-01T05:20:28;-2.10;99.90
8539;DHT22;4307;53.868;11.680;2023-03-01T05:22:58;-2.10;99.90
8539;DHT22;4307;53.868;11.680;2023-03-01T05:25:26;-2.10;99.90
8539;DHT22;4307;53.868;11.680;2023-03-01T05:27:52;-2.10;99.90
8539;DHT22;4307;53.868;11.680;2023-03-01T05:30:19;-2.10;99.90
8539;DHT22;4307;53.868;11.680;2023-03-01T05:32:49;-2.10;99.90
8539;DHT22;4307;53.868;11.680;2023-03-01T05:35:21;-2.10;99.90
8539;DHT22;4307;53.868;11.680;2023-03-01T05:37:49;-2.10;99.90
8539;DHT22;4307;53.868;11.680;2023-03-01T05:40:18;-2.20;99.90
8539;DHT22;4307;53.868;11.680;2023-03-01T05:42:46;-2.20;99.90
8539;DHT22;4307;53.868;11.680;2023-03-01T05:45:14;-2.20;99.90
8539;DHT22;4307;53.868;11.680;2023-03-01T05:47:42;-2.20;99.90
8539;DHT22;4307;53.868;11.680;2023-03-01T05:50:12;-2.20;99.90
8539;DHT22;4307;53.868;11.680;2023-03-01T05:52:39;-2.20;99.90
8539;DHT22;4307;53.868;11.680;2023-03-01T05:55:08;-2.20;99.90
8539;DHT22;4307;53.868;11.680;2023-03-01T05:57:35;-2.20;99.90
8539;DHT22;4307;53.868;11.680;2023-03-01T06:00:02;-2.10;99.90
8539;DHT22;4307;53.868;11.680;2023-03-01T06:02:28;-2.10;99.90
8539;DHT22;4307;53.868;11.680;2023-03-01T06:04:55;-2.10;99.90
8539;DHT22;4307;53.868;11.680;2023-03-01T06:07:22;-2.10;99.90
8539;DHT22;4307;53.868;11.680;2023-03-01T06:09:48;-2.10;99.90
8539;DHT22;4307;53.868;11.680;2023-03-01T06:12:18;-2.10;99.90
8539;DHT22;4307;53.868;11.680;2023-03-01T06:14:46;-2.10;99.90
8539;DHT22;4307;53.868;11.680;2023-03-01T06:17:14;-2.10;99.90
8539;DHT22;4307;53.868;11.680;2023-03-01T06:19:41;-2.00;99.90
8539;DHT22;4307;53.868;11.680;2023-03-01T06:22:09;-2.00;99.90
8539;DHT22;4307;53.868;11.680;2023-03-01T06:24:36;-1.90;99.90
8539;DHT22;4307;53.868;11.680;2023-03-01T06:27:03;-1.90;99.90
8539;DHT22;4307;53.868;11.680;2023-03-01T06:29:31;-1.90;99.90
8539;DHT22;4307;53.868;11.680;2023-03-01T06:31:58;-1.80;99.90
8539;DHT22;4307;53.868;11.680;2023-03-01T06:34:25;-1.80;99.90
8539;DHT22;4307;53.868;11.680;2023-03-01T06:36:52;-1.70;99.90
8539;DHT22;4307;53.868;11.680;2023-03-01T06:39:19;-1.70;99.90
8539;DHT22;4307;53.868;11.680;2023-03-01T06:41:45;-1.60;99.90
8539;DHT22;4307;53.868;11.680;2023-03-01T06:44:12;-1.60;99.90
8539;DHT22;4307;53.868;11.680;2023-03-01T06:46:40;-1.50;99.90
8539;DHT22;4307;53.868;11.680;2023-03-01T06:49:07;-1.50;99.90
8539;DHT22;4307;53.868;11.680;2023-03-01T06:51:35;-1.40;99.90
8539;DHT22;4307;53.868;11.680;2023-03-01T06:54:02;-1.30;99.90
8539;DHT22;4307;53.868;11.680;2023-03-01T06:56:29;-1.30;99.90
8539;DHT22;4307;53.868;11.680;2023-03-01T06:58:56;-1.20;99.90
8539;DHT22;4307;53.868;11.680;2023-03-01T07:01:22;-1.10;99.90
8539;DHT22;4307;53.868;11.680;2023-03-01T07:03:50;-1.10;99.90
8539;DHT22;4307;53.868;11.680;2023-03-01T07:06:18;-1.00;99.90
8539;DHT22;4307;53.868;11.680;2023-03-01T07:08:45;-1.00;99.90
8539;DHT22;4307;53.868;11.680;2023-03-01T07:11:11;-0.90;99.90
8539;DHT22;4307;53.868;11.680;2023-03-01T07:13:38;-0.90;99.90
8539;DHT22;4307;53.868;11.680;2023-03-01T07:16:05;-0.70;99.90
8539;DHT22;4307;53.868;11.680;2023-03-01T07:18:33;-0.70;99.90
8539;DHT22;4307;53.868;11.680;2023-03-01T07:21:05;-0.60;99.90
8539;DHT22;4307;53.868;11.680;2023-03-01T07:23:32;-0.60;99.90
8539;DHT22;4307;53.868;11.680;2023-03-01T07:25:58;-0.50;99.90
8539;DHT22;4307;53.868;11.680;2023-03-01T07:28:26;-0.50;99.90
8539;DHT22;4307;53.868;11.680;2023-03-01T07:30:53;-0.40;99.90
8539;DHT22;4307;53.868;11.680;2023-03-01T07:33:19;-0.20;99.90
8539;DHT22;4307;53.868;11.680;2023-03-01T07:35:46;-0.10;99.90
8539;DHT22;4307;53.868;11.680;2023-03-01T07:38:14;0.00;99.90
8539;DHT22;4307;53.868;11.680;2023-03-01T07:40:41;0.10;99.90
8539;DHT22;4307;53.868;11.680;2023-03-01T07:43:07;0.20;99.90
8539;DHT22;4307;53.868;11.680;2023-03-01T07:45:34;0.40;99.90
8539;DHT22;4307;53.868;11.680;2023-03-01T07:48:01;0.50;99.90
8539;DHT22;4307;53.868;11.680;2023-03-01T07:50:27;0.70;99.90
8539;DHT22;4307;53.868;11.680;2023-03-01T07:52:54;0.90;99.90
8539;DHT22;4307;53.868;11.680;2023-03-01T07:55:22;1.00;99.90
8539;DHT22;4307;53.868;11.680;2023-03-01T07:57:49;1.10;99.90
8539;DHT22;4307;53.868;11.680;2023-03-01T08:00:16;1.30;99.90
8539;DHT22;4307;53.868;11.680;2023-03-01T08:02:43;1.50;99.90
8539;DHT22;4307;53.868;11.680;2023-03-01T08:05:09;1.60;99.90
8539;DHT22;4307;53.868;11.680;2023-03-01T08:07:37;1.80;99.90
8539;DHT22;4307;53.868;11.680;2023-03-01T08:10:04;2.00;99.90
8539;DHT22;4307;53.868;11.680;2023-03-01T08:12:32;2.20;99.90
8539;DHT22;4307;53.868;11.680;2023-03-01T08:14:59;2.50;99.90
8539;DHT22;4307;53.868;11.680;2023-03-01T08:17:26;2.90;99.90
8539;DHT22;4307;53.868;11.680;2023-03-01T08:19:52;3.30;99.90
8539;DHT22;4307;53.868;11.680;2023-03-01T08:22:19;3.70;99.90
8539;DHT22;4307;53.868;11.680;2023-03-01T08:24:46;4.10;99.90
8539;DHT22;4307;53.868;11.680;2023-03-01T08:27:14;4.60;99.90
8539;DHT22;4307;53.868;11.680;2023-03-01T08:29:42;5.00;99.90
8539;DHT22;4307;53.868;11.680;2023-03-01T08:32:09;5.40;99.90
8539;DHT22;4307;53.868;11.680;2023-03-01T08:34:36;5.80;99.90
8539;DHT22;4307;53.868;11.680;2023-03-01T08:37:02;6.30;99.90
8539;DHT22;4307;53.868;11.680;2023-03-01T08:39:29;6.80;99.90
8539;DHT22;4307;53.868;11.680;2023-03-01T08:41:56;7.30;99.90
8539;DHT22;4307;53.868;11.680;2023-03-01T08:44:23;7.70;99.90
8539;DHT22;4307;53.868;11.680;2023-03-01T08:46:51;8.20;99.90
8539;DHT22;4307;53.868;11.680;2023-03-01T08:49:23;8.60;99.90
8539;DHT22;4307;53.868;11.680;2023-03-01T08:51:50;8.80;99.90
8539;DHT22;4307;53.868;11.680;2023-03-01T08:54:18;9.00;99.90
8539;DHT22;4307;53.868;11.680;2023-03-01T08:56:45;9.30;99.90
8539;DHT22;4307;53.868;11.680;2023-03-01T08:59:13;9.60;99.90
8539;DHT22;4307;53.868;11.680;2023-03-01T09:01:40;9.90;99.90
8539;DHT22;4307;53.868;11.680;2023-03-01T09:04:10;10.40;99.90
8539;DHT22;4307;53.868;11.680;2023-03-01T09:06:37;10.40;99.90
8539;DHT22;4307;53.868;11.680;2023-03-01T09:09:04;10.40;99.90
8539;DHT22;4307;53.868;11.680;2023-03-01T09:11:31;10.30;99.90
8539;DHT22;4307;53.868;11.680;2023-03-01T09:13:58;10.20;99.90
8539;DHT22;4307;53.868;11.680;2023-03-01T09:16:25;10.30;99.90
8539;DHT22;4307;53.868;11.680;2023-03-01T09:18:53;10.60;99.90
8539;DHT22;4307;53.868;11.680;2023-03-01T09:21:23;10.90;99.90
8539;DHT22;4307;53.868;11.680;2023-03-01T09:23:49;11.20;99.90
8539;DHT22;4307;53.868;11.680;2023-03-01T09:26:18;11.40;99.90
8539;DHT22;4307;53.868;11.680;2023-03-01T09:28:47;11.50;99.90
8539;DHT22;4307;53.868;11.680;2023-03-01T09:31:14;11.60;99.90
8539;DHT22;4307;53.868;11.680;2023-03-01T09:33:42;11.70;99.90
8539;DHT22;4307;53.868;11.680;2023-03-01T09:36:14;11.90;99.90
8539;DHT22;4307;53.868;11.680;2023-03-01T09:38:42;11.90;99.90
8539;DHT22;4307;53.868;11.680;2023-03-01T09:41:11;12.00;99.90
8539;DHT22;4307;53.868;11.680;2023-03-01T09:43:48;12.10;99.90
8539;DHT22;4307;53.868;11.680;2023-03-01T09:46:20;12.10;99.90
8539;DHT22;4307;53.868;11.680;2023-03-01T09:48:51;12.20;99.90
8539;DHT22;4307;53.868;11.680;2023-03-01T09:51:23;12.40;99.90
8539;DHT22;4307;53.868;11.680;2023-03-01T09:53:53;12.50;99.90
8539;DHT22;4307;53.868;11.680;2023-03-01T09:56:26;12.60;99.90
8539;DHT22;4307;53.868;11.680;2023-03-01T09:58:58;12.70;99.90
8539;DHT22;4307;53.868;11.680;2023-03-01T10:01:31;12.90;99.90
8539;DHT22;4307;53.868;11.680;2023-03-01T10:04:09;12.90;99.90
8539;DHT22;4307;53.868;11.680;2023-03-01T10:06:39;13.00;99.90
8539;DHT22;4307;53.868;11.680;2023-03-01T10:09:13;13.10;99.90
8539;DHT22;4307;53.868;11.680;2023-03-01T10:11:44;13.20;99.90
8539;DHT22;4307;53.868;11.680;2023-03-01T10:14:27;13.20;99.90
8539;DHT22;4307;53.868;11.680;2023-03-01T10:16:57;13.30;99.90
8539;DHT22;4307;53.868;11.680;2023-03-01T10:19:31;13.30;99.90
8539;DHT22;4307;53.868;11.680;2023-03-01T10:22:03;13.40;99.90
8539;DHT22;4307;53.868;11.680;2023-03-01T10:24:35;13.50;99.90
8539;DHT22;4307;53.868;11.680;2023-03-01T10:27:05;13.50;99.90
8539;DHT22;4307;53.868;11.680;2023-03-01T10:29:39;13.60;99.90
8539;DHT22;4307;53.868;11.680;2023-03-01T10:32:10;13.70;99.90
8539;DHT22;4307;53.868;11.680;2023-03-01T10:34:37;13.70;99.90
8539;DHT22;4307;53.868;11.680;2023-03-01T10:37:10;13.90;99.90
8539;DHT22;4307;53.868;11.680;2023-03-01T10:39:55;14.00;99.90
8539;DHT22;4307;53.868;11.680;2023-03-01T10:42:26;14.10;99.90
8539;DHT22;4307;53.868;11.680;2023-03-01T10:44:53;14.20;99.90
8539;DHT22;4307;53.868;11.680;2023-03-01T10:47:22;14.20;99.80
8539;DHT22;4307;53.868;11.680;2023-03-01T10:49:56;14.10;99.50
8539;DHT22;4307;53.868;11.680;2023-03-01T10:52:26;14.10;99.20
8539;DHT22;4307;53.868;11.680;2023-03-01T10:54:56;14.10;99.20
8539;DHT22;4307;53.868;11.680;2023-03-01T10:57:33;14.10;98.90
8539;DHT22;4307;53.868;11.680;2023-03-01T11:03:02;14.00;98.60
8539;DHT22;4307;53.868;11.680;2023-03-01T11:05:29;14.00;98.70
8539;DHT22;4307;53.868;11.680;2023-03-01T11:08:00;14.00;98.60
8539;DHT22;4307;53.868;11.680;2023-03-01T11:10:31;14.10;98.60
8539;DHT22;4307;53.868;11.680;2023-03-01T11:13:13;14.00;98.40
8539;DHT22;4307;53.868;11.680;2023-03-01T11:15:41;14.00;98.20
8539;DHT22;4307;53.868;11.680;2023-03-01T11:18:19;13.90;98.20
8539;DHT22;4307;53.868;11.680;2023-03-01T11:20:46;13.80;98.10
8539;DHT22;4307;53.868;11.680;2023-03-01T11:23:15;13.70;98.20
8539;DHT22;4307;53.868;11.680;2023-03-01T11:25:47;13.70;98.20
8539;DHT22;4307;53.868;11.680;2023-03-01T11:28:17;13.60;98.30
8539;DHT22;4307;53.868;11.680;2023-03-01T11:30:49;13.60;98.40
8539;DHT22;4307;53.868;11.680;2023-03-01T11:33:19;13.60;98.30
8539;DHT22;4307;53.868;11.680;2023-03-01T11:35:50;13.50;98.40
8539;DHT22;4307;53.868;11.680;2023-03-01T11:38:23;13.50;98.70
8539;DHT22;4307;53.868;11.680;2023-03-01T11:40:55;13.40;98.40
8539;DHT22;4307;53.868;11.680;2023-03-01T11:43:32;13.40;98.40
8539;DHT22;4307;53.868;11.680;2023-03-01T11:46:29;13.40;98.60
8539;DHT22;4307;53.868;11.680;2023-03-01T11:49:06;13.50;98.70
8539;DHT22;4307;53.868;11.680;2023-03-01T11:51:44;13.50;98.60
8539;DHT22;4307;53.868;11.680;2023-03-01T11:54:28;13.50;98.50
8539;DHT22;4307;53.868;11.680;2023-03-01T11:57:04;13.40;98.40
8539;DHT22;4307;53.868;11.680;2023-03-01T11:59:54;13.30;98.40
8539;DHT22;4307;53.868;11.680;2023-03-01T12:02:45;13.20;98.40
8539;DHT22;4307;53.868;11.680;2023-03-01T12:05:38;12.90;98.50
8539;DHT22;4307;53.868;11.680;2023-03-01T12:08:16;12.80;98.60
8539;DHT22;4307;53.868;11.680;2023-03-01T12:10:54;12.60;98.60
8539;DHT22;4307;53.868;11.680;2023-03-01T12:13:46;12.40;98.70
8539;DHT22;4307;53.868;11.680;2023-03-01T12:16:24;12.20;98.80
8539;DHT22;4307;53.868;11.680;2023-03-01T12:19:08;12.20;99.00
8539;DHT22;4307;53.868;11.680;2023-03-01T12:21:52;12.20;99.10
8539;DHT22;4307;53.868;11.680;2023-03-01T12:24:32;12.30;99.30
8539;DHT22;4307;53.868;11.680;2023-03-01T12:27:16;12.30;99.20
8539;DHT22;4307;53.868;11.680;2023-03-01T12:29:51;12.20;99.20
8539;DHT22;4307;53.868;11.680;2023-03-01T12:32:28;12.30;99.30
8539;DHT22;4307;53.868;11.680;2023-03-01T12:35:11;12.30;99.20
8539;DHT22;4307;53.868;11.680;2023-03-01T12:37:51;12.30;99.20
8539;DHT22;4307;53.868;11.680;2023-03-01T12:40:45;12.00;99.10
8539;DHT22;4307;53.868;11.680;2023-03-01T12:43:26;11.80;99.20
8539;DHT22;4307;53.868;11.680;2023-03-01T12:46:14;11.50;99.20
8539;DHT22;4307;53.868;11.680;2023-03-01T12:48:51;11.30;99.40
8539;DHT22;4307;53.868;11.680;2023-03-01T12:51:24;11.10;99.50
8539;DHT22;4307;53.868;11.680;2023-03-01T12:53:54;11.00;99.60
8539;DHT22;4307;53.868;11.680;2023-03-01T12:56:24;10.70;99.50
8539;DHT22;4307;53.868;11.680;2023-03-01T12:58:57;10.50;99.70
8539;DHT22;4307;53.868;11.680;2023-03-01T13:01:36;10.30;99.80
8539;DHT22;4307;53.868;11.680;2023-03-01T13:04:21;10.10;99.90
8539;DHT22;4307;53.868;11.680;2023-03-01T13:07:02;10.00;99.90
8539;DHT22;4307;53.868;11.680;2023-03-01T13:09:37;9.80;99.90
8539;DHT22;4307;53.868;11.680;2023-03-01T13:12:42;9.60;99.90
8539;DHT22;4307;53.868;11.680;2023-03-01T13:15:25;9.50;99.90
8539;DHT22;4307;53.868;11.680;2023-03-01T13:17:55;9.40;99.90
8539;DHT22;4307;53.868;11.680;2023-03-01T13:20:26;9.30;99.90
8539;DHT22;4307;53.868;11.680;2023-03-01T13:23:02;9.10;99.90
8539;DHT22;4307;53.868;11.680;2023-03-01T13:25:30;9.00;99.90
8539;DHT22;4307;53.868;11.680;2023-03-01T13:30:57;8.60;99.90
8539;DHT22;4307;53.868;11.680;2023-03-01T13:33:45;8.50;99.90
8539;DHT22;4307;53.868;11.680;2023-03-01T13:36:45;8.40;99.90
8539;DHT22;4307;53.868;11.680;2023-03-01T13:39:28;8.30;99.90
8539;DHT22;4307;53.868;11.680;2023-03-01T13:41:58;8.20;99.90
8539;DHT22;4307;53.868;11.680;2023-03-01T13:44:29;8.10;99.90
8539;DHT22;4307;53.868;11.680;2023-03-01T13:46:58;8.00;99.90
8539;DHT22;4307;53.868;11.680;2023-03-01T13:49:29;7.90;99.90
8539;DHT22;4307;53.868;11.680;2023-03-01T13:51:57;7.90;99.90
8539;DHT22;4307;53.868;11.680;2023-03-01T13:54:28;7.90;99.90
8539;DHT22;4307;53.868;11.680;2023-03-01T13:56:56;7.80;99.90
8539;DHT22;4307;53.868;11.680;2023-03-01T13:59:23;7.80;99.90
8539;DHT22;4307;53.868;11.680;2023-03-01T14:02:14;7.80;99.90
8539;DHT22;4307;53.868;11.680;2023-03-01T14:04:43;7.80;99.90
8539;DHT22;4307;53.868;11.680;2023-03-01T14:07:11;7.70;99.90
8539;DHT22;4307;53.868;11.680;2023-03-01T14:09:40;7.70;99.90
8539;DHT22;4307;53.868;11.680;2023-03-01T14:12:21;7.70;99.90
8539;DHT22;4307;53.868;11.680;2023-03-01T14:14:56;7.70;99.90
8539;DHT22;4307;53.868;11.680;2023-03-01T14:17:38;7.60;99.90
8539;DHT22;4307;53.868;11.680;2023-03-01T14:20:14;7.60;99.90
8539;DHT22;4307;53.868;11.680;2023-03-01T14:22:43;7.40;99.90
8539;DHT22;4307;53.868;11.680;2023-03-01T14:25:21;7.30;99.90
8539;DHT22;4307;53.868;11.680;2023-03-01T14:27:57;7.20;99.90
8539;DHT22;4307;53.868;11.680;2023-03-01T14:30:26;7.10;99.90
8539;DHT22;4307;53.868;11.680;2023-03-01T14:32:55;7.10;99.90
8539;DHT22;4307;53.868;11.680;2023-03-01T14:35:25;7.00;99.90
8539;DHT22;4307;53.868;11.680;2023-03-01T14:37:52;7.00;99.90
8539;DHT22;4307;53.868;11.680;2023-03-01T14:40:28;6.90;99.90
8539;DHT22;4307;53.868;11.680;2023-03-01T14:42:57;6.90;99.90
8539;DHT22;4307;53.868;11.680;2023-03-01T14:45:26;6.90;99.90
8539;DHT22;4307;53.868;11.680;2023-03-01T14:47:54;6.90;99.90
8539;DHT22;4307;53.868;11.680;2023-03-01T14:50:25;6.90;99.90
8539;DHT22;4307;53.868;11.680;2023-03-01T14:52:54;6.90;99.90
8539;DHT22;4307;53.868;11.680;2023-03-01T14:55:27;6.80;99.90
8539;DHT22;4307;53.868;11.680;2023-03-01T14:57:56;6.70;99.90
8539;DHT22;4307;53.868;11.680;2023-03-01T15:00:26;6.70;99.90
8539;DHT22;4307;53.868;11.680;2023-03-01T15:02:56;6.60;99.90
8539;DHT22;4307;53.868;11.680;2023-03-01T15:05:27;6.50;99.90
8539;DHT22;4307;53.868;11.680;2023-03-01T15:07:57;6.50;99.90
8539;DHT22;4307;53.868;11.680;2023-03-01T15:10:27;6.40;99.90
8539;DHT22;4307;53.868;11.680;2023-03-01T15:12:55;6.30;99.90
8539;DHT22;4307;53.868;11.680;2023-03-01T15:15:34;6.30;99.90
8539;DHT22;4307;53.868;11.680;2023-03-01T15:18:04;6.20;99.90
8539;DHT22;4307;53.868;11.680;2023-03-01T15:20:33;6.10;99.90
8539;DHT22;4307;53.868;11.680;2023-03-01T15:23:02;6.10;99.90
8539;DHT22;4307;53.868;11.680;2023-03-01T15:25:30;6.10;99.90
8539;DHT22;4307;53.868;11.680;2023-03-01T15:27:59;6.00;99.90
8539;DHT22;4307;53.868;11.680;2023-03-01T15:30:29;6.00;99.90
8539;DHT22;4307;53.868;11.680;2023-03-01T15:33:34;5.90;99.90
8539;DHT22;4307;53.868;11.680;2023-03-01T15:36:32;5.90;99.90
8539;DHT22;4307;53.868;11.680;2023-03-01T15:38:59;5.80;99.90
8539;DHT22;4307;53.868;11.680;2023-03-01T15:41:28;5.80;99.90
8539;DHT22;4307;53.868;11.680;2023-03-01T15:43:58;5.70;99.90
8539;DHT22;4307;53.868;11.680;2023-03-01T15:46:27;5.60;99.90
8539;DHT22;4307;53.868;11.680;2023-03-01T15:48:57;5.60;99.90
8539;DHT22;4307;53.868;11.680;2023-03-01T15:51:30;5.60;99.90
8539;DHT22;4307;53.868;11.680;2023-03-01T15:54:00;5.50;99.90
8539;DHT22;4307;53.868;11.680;2023-03-01T15:56:27;5.50;99.90
8539;DHT22;4307;53.868;11.680;2023-03-01T15:58:58;5.40;99.90
8539;DHT22;4307;53.868;11.680;2023-03-01T16:01:25;5.40;99.90
8539;DHT22;4307;53.868;11.680;2023-03-01T16:03:53;5.40;99.90
8539;DHT22;4307;53.868;11.680;2023-03-01T16:06:21;5.40;99.90
8539;DHT22;4307;53.868;11.680;2023-03-01T16:08:49;5.30;99.90
8539;DHT22;4307;53.868;11.680;2023-03-01T16:11:19;5.30;99.90
8539;DHT22;4307;53.868;11.680;2023-03-01T16:13:46;5.30;99.90
8539;DHT22;4307;53.868;11.680;2023-03-01T16:16:14;5.30;99.90